createdAt,value
2023-04-19T00:03:40.068Z,9.17
2023-04-19T00:18:43.431Z,9.02
2023-04-19T00:33:47.005Z,8.89
2023-04-19T00:48:50.928Z,8.78
2023-04-19T01:03:54.225Z,8.73
2023-04-19T01:18:57.359Z,8.64
2023-04-19T01:34:00.850Z,8.50
2023-04-19T01:49:04.539Z,8.41
2023-04-19T02:04:08.287Z,8.34
2023-04-19T02:19:11.581Z,8.37
2023-04-19T02:34:15.494Z,8.60
2023-04-19T02:49:19.922Z,8.79
2023-04-19T03:04:23.653Z,8.90
2023-04-19T03:19:27.182Z,8.74
2023-04-19T03:34:30.312Z,8.92
2023-04-19T03:49:33.487Z,9.08
2023-04-19T04:04:41.484Z,9.20
2023-04-19T04:19:45.008Z,9.31
2023-04-19T04:34:48.724Z,9.34
2023-04-19T04:49:59.997Z,9.30
2023-04-19T05:05:03.650Z,9.35
2023-04-19T05:20:07.467Z,9.35
2023-04-19T05:35:12.391Z,9.38
2023-04-19T05:50:18.233Z,9.44
2023-04-19T06:05:27.403Z,9.50
2023-04-19T06:20:32.664Z,9.66
2023-04-19T06:35:36.012Z,9.86
2023-04-19T06:50:39.179Z,9.94
2023-04-19T07:05:42.356Z,10.03
2023-04-19T07:20:48.910Z,10.11
2023-04-19T07:35:52.434Z,10.25
2023-04-19T07:50:55.594Z,10.94
2023-04-19T08:06:01.384Z,11.70
2023-04-19T08:21:05.294Z,11.35
2023-04-19T08:36:09.525Z,11.50
2023-04-19T08:51:15.373Z,11.86
2023-04-19T09:06:18.939Z,12.17
2023-04-19T09:21:30.157Z,11.92
2023-04-19T09:36:33.998Z,12.32
2023-04-19T09:51:50.751Z,12.08
2023-04-19T10:07:24.480Z,11.53
2023-04-19T10:22:19.291Z,11.60
2023-04-19T10:37:25.256Z,11.58
2023-04-19T10:52:30.009Z,11.53
2023-04-19T11:07:39.965Z,12.14
2023-04-19T11:22:46.657Z,12.16
2023-04-19T11:37:50.822Z,12.52
2023-04-19T11:52:54.208Z,13.13
2023-04-19T12:08:04.987Z,13.19
2023-04-19T12:23:11.373Z,13.22
2023-04-19T12:38:14.718Z,13.11
2023-04-19T12:53:18.227Z,13.13
2023-04-19T13:08:30.955Z,12.96
2023-04-19T13:23:45.504Z,12.83
2023-04-19T13:38:49.610Z,12.65
2023-04-19T13:53:55.445Z,12.66
2023-04-19T14:08:59.446Z,12.89
2023-04-19T14:24:04.336Z,13.37
2023-04-19T14:39:09.271Z,13.90
2023-04-19T14:54:13.514Z,14.19
2023-04-19T15:09:18.392Z,15.19
2023-04-19T15:24:22.762Z,20.89
2023-04-19T15:39:27.586Z,22.66
2023-04-19T15:54:32.312Z,20.14
2023-04-19T16:09:35.721Z,19.05
2023-04-19T16:24:39.053Z,18.92
2023-04-19T16:39:42.388Z,17.83
2023-04-19T16:54:45.522Z,17.36
2023-04-19T17:09:48.767Z,16.82
2023-04-19T17:24:52.237Z,16.47
2023-04-19T17:39:55.804Z,15.42
2023-04-19T17:54:59.114Z,14.53
2023-04-19T18:10:04.171Z,13.92
2023-04-19T18:25:08.095Z,13.79
2023-04-19T18:40:11.876Z,13.92
2023-04-19T18:55:16.317Z,13.60
2023-04-19T19:10:22.305Z,13.46
2023-04-19T19:25:29.951Z,13.47
2023-04-19T19:40:40.819Z,13.66
2023-04-19T19:56:00.592Z,13.66
2023-04-19T20:11:04.148Z,13.59
2023-04-19T20:26:07.635Z,13.48
2023-04-19T20:41:12.176Z,13.52
2023-04-19T20:56:17.294Z,13.37
2023-04-19T21:11:21.190Z,13.28
2023-04-19T21:26:24.292Z,13.29
2023-04-19T21:41:27.514Z,13.20
2023-04-19T21:56:30.557Z,13.05
2023-04-19T22:11:36.662Z,13.05
2023-04-19T22:26:39.692Z,13.04
2023-04-19T22:41:42.855Z,13.16
2023-04-19T22:56:45.992Z,13.27
2023-04-19T23:11:49.339Z,13.25
2023-04-19T23:26:52.723Z,13.17
2023-04-19T23:41:55.726Z,13.10
2023-04-19T23:56:59.743Z,13.07
